Time;durP1;ratioP1;P1;durP2;ratioP2;P2;SDS_P1;SDS_P2;PMS_P1;PMS_P2;Temp;Humidity;BMP_temperature;BMP_pressure;BME280_temperature;BME280_humidity;BME280_pressure;Samples;Min_cycle;Max_cycle;Signal;HPM_P1;HPM_P2
2022/10/12 00:00:44;;;;;;;;;;;;;;;;;;4763610;29;19936;-86
2022/10/12 00:03:11;;;;;;;;;;;;;;;;;;4754107;29;21272;-86
2022/10/12 00:05:37;;;;;;;;;;;;;;;;;;4757861;29;19953;-86
2022/10/12 00:08:03;;;;;;;;;;;;;;;;;;4753660;29;19969;-86
2022/10/12 00:10:29;;;;;;;;;;;;;;;;;;4745511;29;19972;-86
2022/10/12 00:12:55;;;;;;;;;;;;;;;;;;4754861;29;20430;-86
2022/10/12 00:15:21;;;;;;;;;;;;;;;;;;4761196;29;19947;-86
2022/10/12 00:17:47;;;;;;;;;;;;;;;;;;4757167;29;19938;-86
2022/10/12 00:20:13;;;;;;;;;;;;;;;;;;4746128;29;19925;-86
2022/10/12 00:22:38;;;;;;;;;;;;;;;;;;4760784;29;19938;-86
2022/10/12 00:25:04;;;;;;;;;;;;;;;;;;4713124;30;19929;-86
2022/10/12 00:27:30;;;;;;;;;;;;;;;;;;4758312;29;20488;-86
2022/10/12 00:29:56;;;;;;;;;;;;;;;;;;4746483;29;19934;-86
2022/10/12 00:32:22;;;;;;;;;;;;;;;;;;4746326;29;19929;-86
2022/10/12 00:34:48;;;;;;;;;;;;;;;;;;4732830;30;19979;-86
2022/10/12 00:37:17;;;;;;;;;;;;;;;;;;4748282;29;20483;-86
2022/10/12 00:39:43;;;;;;;;;;;;;;;;;;4749101;29;20357;-86
2022/10/12 00:42:09;;;;;;;;;;;;;;;;;;4742590;29;21077;-86
2022/10/12 00:44:35;;;;;;;;;;;;;;;;;;4743800;29;19934;-86
2022/10/12 00:47:01;;;;;;;;;;;;;;;;;;4755407;29;19961;-87
2022/10/12 00:49:27;;;;;;;;;;;;;;;;;;4756377;29;19977;-86
2022/10/12 00:51:53;;;;;;;;;;;;;;;;;;4743042;29;20005;-86
2022/10/12 00:54:19;;;;;;;;;;;;;;;;;;4771765;29;20009;-86
2022/10/12 00:56:45;;;;;;;;;;;;;;;;;;4748677;29;20400;-86
2022/10/12 00:59:11;;;;;;;;;;;;;;;;;;4741385;29;20000;-86
2022/10/12 01:01:37;;;;;;;;;;;;;;;;;;4748685;29;19949;-86
2022/10/12 01:04:03;;;;;;;;;;;;;;;;;;4737189;29;19936;-86
2022/10/12 01:06:29;;;;;;;;;;;;;;;;;;4725988;30;19948;-86
2022/10/12 01:08:55;;;;;;;;;;;;;;;;;;4720548;30;19929;-87
2022/10/12 01:11:21;;;;;;;;;;;;;;;;;;4726377;30;19991;-86
2022/10/12 01:13:47;;;;;;;;;;;;;;;;;;4727622;30;19969;-86
2022/10/12 01:16:13;;;;;;;;;;;;;;;;;;4755364;29;19927;-86
2022/10/12 01:18:39;;;;;;;;;;;;;;;;;;4742051;29;19938;-86
2022/10/12 01:21:05;;;;;;;;;;;;;;;;;;4723688;30;19929;-86
2022/10/12 01:23:31;;;;;;;;;;;;;;;;;;4745380;29;19951;-87
2022/10/12 01:25:57;;;;;;;;;;;;;;;;;;4734612;29;19930;-84
2022/10/12 01:28:23;;;;;;;;;;;;;;;;;;4745457;29;20362;-85
2022/10/12 01:30:52;;;;;;;;;;;;;;;;;;4756837;29;19941;-85
2022/10/12 01:33:18;;;;;;;;;;;;;;;;;;4762481;29;19926;-85
2022/10/12 01:35:44;;;;;;;;;;;;;;;;;;4732287;30;19930;-85
2022/10/12 01:38:10;;;;;;;;;;;;;;;;;;4743696;29;21682;-85
2022/10/12 01:40:36;;;;;;;;;;;;;;;;;;4747084;29;20283;-85
2022/10/12 01:43:02;;;;;;;;;;;;;;;;;;4738170;29;20070;-85
2022/10/12 01:45:28;;;;;;;;;;;;;;;;;;4747435;29;19959;-87
2022/10/12 01:47:54;;;;;;;;;;;;;;;;;;4737369;29;19941;-85
2022/10/12 01:50:20;;;;;;;;;;;;;;;;;;4760683;29;20370;-85
2022/10/12 01:52:46;;;;;;;;;;;;;;;;;;4744428;29;20386;-85
2022/10/12 01:55:12;;;;;;;;;;;;;;;;;;4742837;29;20030;-85
2022/10/12 01:57:38;;;;;;;;;;;;;;;;;;4763066;29;20306;-85
2022/10/12 02:00:04;;;;;;;;;;;;;;;;;;4738389;29;19993;-86
2022/10/12 02:02:30;;;;;;;;;;;;;;;;;;4729559;30;19941;-85
2022/10/12 02:04:56;;;;;;;;;;;;;;;;;;4758370;29;19965;-86
2022/10/12 02:07:22;;;;;;;;;;;;;;;;;;4751002;29;19942;-85
2022/10/12 02:09:48;;;;;;;;;;;;;;;;;;4758669;29;20634;-85
2022/10/12 02:12:14;;;;;;;;;;;;;;;;;;4727402;30;19926;-84
2022/10/12 02:14:40;;;;;;;;;;;;;;;;;;4747142;29;20247;-85
2022/10/12 02:17:06;;;;;;;;;;;;;;;;;;4740194;29;19945;-86
2022/10/12 02:19:32;;;;;;;;;;;;;;;;;;4727325;30;20305;-86
2022/10/12 02:21:58;;;;;;;;;;;;;;;;;;4715895;30;19934;-86
2022/10/12 02:24:24;;;;;;;;;;;;;;;;;;4741994;29;20332;-84
2022/10/12 02:26:50;;;;;;;;;;;;;;;;;;4747506;29;19933;-85
2022/10/12 02:29:16;;;;;;;;;;;;;;;;;;4745394;29;19934;-86
2022/10/12 02:31:42;;;;;;;;;;;;;;;;;;4747239;29;19981;-86
2022/10/12 02:34:08;;;;;;;;;;;;;;;;;;4742978;29;19929;-86
2022/10/12 02:36:34;;;;;;;;;;;;;;;;;;4763812;29;19996;-86
2022/10/12 02:39:00;;;;;;;;;;;;;;;;;;4759250;29;19930;-86
2022/10/12 02:41:26;;;;;;;;;;;;;;;;;;4745544;29;19941;-86
2022/10/12 02:43:52;;;;;;;;;;;;;;;;;;4757123;29;21540;-86
2022/10/12 02:46:18;;;;;;;;;;;;;;;;;;4751223;29;19948;-86
2022/10/12 02:48:44;;;;;;;;;;;;;;;;;;4753965;29;19922;-86
2022/10/12 02:51:10;;;;;;;;;;;;;;;;;;4733424;30;21900;-86
2022/10/12 02:53:36;;;;;;;;;;;;;;;;;;4743796;29;19922;-86
2022/10/12 02:56:02;;;;;;;;;;;;;;;;;;4735897;30;19956;-86
2022/10/12 02:58:28;;;;;;;;;;;;;;;;;;4747938;29;19942;-86
2022/10/12 03:00:54;;;;;;;;;;;;;;;;;;4748559;29;19934;-86
2022/10/12 03:03:20;;;;;;;;;;;;;;;;;;4746761;29;19937;-86
2022/10/12 03:05:46;;;;;;;;;;;;;;;;;;4762894;29;20282;-87
2022/10/12 03:08:12;;;;;;;;;;;;;;;;;;4746874;29;19934;-86
2022/10/12 03:10:38;;;;;;;;;;;;;;;;;;4743266;30;19932;-86
2022/10/12 03:13:04;;;;;;;;;;;;;;;;;;4737863;30;19959;-87
2022/10/12 03:15:30;;;;;;;;;;;;;;;;;;4755794;29;19952;-86
2022/10/12 03:17:56;;;;;;;;;;;;;;;;;;4755318;29;19933;-86
2022/10/12 03:20:22;;;;;;;;;;;;;;;;;;4770297;29;20447;-86
2022/10/12 03:22:48;;;;;;;;;;;;;;;;;;4774501;29;20321;-86
2022/10/12 03:25:14;;;;;;;;;;;;;;;;;;4768109;29;20409;-86
2022/10/12 03:27:40;;;;;;;;;;;;;;;;;;4756835;29;20012;-86
2022/10/12 03:30:06;;;;;;;;;;;;;;;;;;4772991;29;19945;-86
2022/10/12 03:32:32;;;;;;;;;;;;;;;;;;4770678;29;20291;-86
2022/10/12 03:34:58;;;;;;;;;;;;;;;;;;4768847;29;19987;-86
2022/10/12 03:37:24;;;;;;;;;;;;;;;;;;4769901;29;19938;-86
2022/10/12 03:39:50;;;;;;;;;;;;;;;;;;4741883;29;19934;-86
2022/10/12 03:42:16;;;;;;;;;;;;;;;;;;4747454;29;19940;-86
2022/10/12 03:44:42;;;;;;;;;;;;;;;;;;4744063;29;19934;-86
2022/10/12 03:47:08;;;;;;;;;;;;;;;;;;4720830;29;19933;-86
2022/10/12 03:49:34;;;;;;;;;;;;;;;;;;4749580;29;19929;-86
2022/10/12 03:52:00;;;;;;;;;;;;;;;;;;4723822;29;19976;-86
2022/10/12 03:54:26;;;;;;;;;;;;;;;;;;4728172;29;23648;-85
2022/10/12 03:56:52;;;;;;;;;;;;;;;;;;4719354;29;19977;-85
2022/10/12 03:59:18;;;;;;;;;;;;;;;;;;4726370;29;19937;-85
2022/10/12 04:01:44;;;;;;;;;;;;;;;;;;4738926;29;19933;-85
2022/10/12 04:04:10;;;;;;;;;;;;;;;;;;4735803;29;21280;-85
2022/10/12 04:06:36;;;;;;;;;;;;;;;;;;4746042;29;19985;-85
2022/10/12 04:09:02;;;;;;;;;;;;;;;;;;4728449;29;19934;-85
2022/10/12 04:11:28;;;;;;;;;;;;;;;;;;4725041;30;19925;-85
2022/10/12 04:13:54;;;;;;;;;;;;;;;;;;4727706;29;19981;-85
2022/10/12 04:16:20;;;;;;;;;;;;;;;;;;4725124;29;19936;-84
2022/10/12 04:18:46;;;;;;;;;;;;;;;;;;4732651;29;20020;-85
2022/10/12 04:21:12;;;;;;;;;;;;;;;;;;4738274;29;19936;-85
2022/10/12 04:23:38;;;;;;;;;;;;;;;;;;4727471;29;20444;-85
2022/10/12 04:26:04;;;;;;;;;;;;;;;;;;4739637;29;19940;-85
2022/10/12 04:28:30;;;;;;;;;;;;;;;;;;4725383;29;20347;-85
2022/10/12 04:30:56;;;;;;;;;;;;;;;;;;4735124;29;21168;-85
2022/10/12 04:33:22;;;;;;;;;;;;;;;;;;4742979;29;20145;-85
2022/10/12 04:35:48;;;;;;;;;;;;;;;;;;4758170;29;20671;-85
2022/10/12 04:38:14;;;;;;;;;;;;;;;;;;4721830;29;19937;-85
2022/10/12 04:40:40;;;;;;;;;;;;;;;;;;4750154;29;20337;-85
2022/10/12 04:43:06;;;;;;;;;;;;;;;;;;4737712;29;19936;-85
2022/10/12 04:45:31;;;;;;;;;;;;;;;;;;4733005;29;19937;-85
2022/10/12 04:47:57;;;;;;;;;;;;;;;;;;4735289;29;19925;-85
2022/10/12 04:50:23;;;;;;;;;;;;;;;;;;4754609;29;19937;-85
2022/10/12 04:52:52;;;;;;;;;;;;;;;;;;4727392;29;19968;-85
2022/10/12 04:55:18;;;;;;;;;;;;;;;;;;4724639;29;19926;-85
2022/10/12 04:57:44;;;;;;;;;;;;;;;;;;4754247;29;20300;-85
2022/10/12 05:00:10;;;;;;;;;;;;;;;;;;4746270;29;20599;-86
2022/10/12 05:02:36;;;;;;;;;;;;;;;;;;4749735;29;19952;-86
2022/10/12 05:05:03;;;;;;;;;;;;;;;;;;4743642;29;19969;-86
2022/10/12 05:07:28;;;;;;;;;;;;;;;;;;4741788;29;20570;-85
2022/10/12 05:09:54;;;;;;;;;;;;;;;;;;4744258;29;19934;-85
2022/10/12 05:12:20;;;;;;;;;;;;;;;;;;4740675;29;20347;-85
2022/10/12 05:14:46;;;;;;;;;;;;;;;;;;4747119;29;20282;-85
2022/10/12 05:17:12;;;;;;;;;;;;;;;;;;4734403;29;19941;-85
2022/10/12 05:19:38;;;;;;;;;;;;;;;;;;4746573;29;19969;-85
2022/10/12 05:22:04;;;;;;;;;;;;;;;;;;4743717;29;19952;-85
2022/10/12 05:24:30;;;;;;;;;;;;;;;;;;4747922;29;20041;-85
2022/10/12 05:26:56;;;;;;;;;;;;;;;;;;4726383;29;20048;-85
2022/10/12 05:29:22;;;;;;;;;;;;;;;;;;4743251;29;19935;-84
2022/10/12 05:31:48;;;;;;;;;;;;;;;;;;4754752;29;20016;-85
2022/10/12 05:34:14;;;;;;;;;;;;;;;;;;4741895;29;20282;-85
2022/10/12 05:36:40;;;;;;;;;;;;;;;;;;4750666;29;19929;-86
2022/10/12 05:39:06;;;;;;;;;;;;;;;;;;4725526;29;19937;-86
2022/10/12 05:41:32;;;;;;;;;;;;;;;;;;4733535;29;20012;-86
2022/10/12 05:43:58;;;;;;;;;;;;;;;;;;4747940;29;20361;-86
2022/10/12 05:46:24;;;;;;;;;;;;;;;;;;4752047;29;20616;-86
2022/10/12 05:48:50;;;;;;;;;;;;;;;;;;4725792;29;20042;-86
2022/10/12 05:51:16;;;;;;;;;;;;;;;;;;4731871;29;19933;-86
2022/10/12 05:53:42;;;;;;;;;;;;;;;;;;4756947;29;19933;-85
2022/10/12 05:56:08;;;;;;;;;;;;;;;;;;4739952;29;19929;-86
2022/10/12 05:58:34;;;;;;;;;;;;;;;;;;4739806;29;19940;-86
2022/10/12 06:00:59;;;;;;;;;;;;;;;;;;4743527;29;19929;-87
2022/10/12 06:03:25;;;;;;;;;;;;;;;;;;4756170;29;20025;-86
2022/10/12 06:05:51;;;;;;;;;;;;;;;;;;4749453;29;20391;-86
2022/10/12 06:08:17;;;;;;;;;;;;;;;;;;4735124;29;19929;-86
2022/10/12 06:10:43;;;;;;;;;;;;;;;;;;4741229;29;19936;-86
2022/10/12 06:13:09;;;;;;;;;;;;;;;;;;4754642;29;22570;-86
2022/10/12 06:15:35;;;;;;;;;;;;;;;;;;4752662;29;20349;-85
2022/10/12 06:18:01;;;;;;;;;;;;;;;;;;4732202;29;19954;-86
2022/10/12 06:20:27;;;;;;;;;;;;;;;;;;4762079;29;20064;-85
2022/10/12 06:22:53;;;;;;;;;;;;;;;;;;4776083;29;19959;-86
2022/10/12 06:25:19;;;;;;;;;;;;;;;;;;4752017;29;20009;-86
2022/10/12 06:27:45;;;;;;;;;;;;;;;;;;4735011;29;20401;-87
2022/10/12 06:30:11;;;;;;;;;;;;;;;;;;4741631;29;20037;-86
2022/10/12 06:32:37;;;;;;;;;;;;;;;;;;4730598;29;19933;-86
2022/10/12 06:35:03;;;;;;;;;;;;;;;;;;4738773;29;19929;-86
2022/10/12 06:37:29;;;;;;;;;;;;;;;;;;4756863;29;19933;-86
2022/10/12 06:39:55;;;;;;;;;;;;;;;;;;4749807;29;20267;-86
2022/10/12 06:42:21;;;;;;;;;;;;;;;;;;4744327;29;19968;-86
2022/10/12 06:44:47;;;;;;;;;;;;;;;;;;4732215;29;19933;-86
2022/10/12 06:47:13;;;;;;;;;;;;;;;;;;4735477;29;20301;-85
2022/10/12 06:49:39;;;;;;;;;;;;;;;;;;4732653;29;20063;-85
2022/10/12 06:52:05;;;;;;;;;;;;;;;;;;4739812;29;19936;-85
2022/10/12 06:54:31;;;;;;;;;;;;;;;;;;4744367;29;19933;-85
2022/10/12 06:56:57;;;;;;;;;;;;;;;;;;4740943;29;20638;-86
2022/10/12 06:59:22;;;;;;;;;;;;;;;;;;4747736;29;19939;-85
2022/10/12 07:01:48;;;;;;;;;;;;;;;;;;4746967;29;20611;-86
2022/10/12 07:04:17;;;;;;;;;;;;;;;;;;4741927;29;19929;-85
2022/10/12 07:06:43;;;;;;;;;;;;;;;;;;4735632;29;19929;-85
2022/10/12 07:09:09;;;;;;;;;;;;;;;;;;4737075;29;21141;-86
2022/10/12 07:11:35;;;;;;;;;;;;;;;;;;4747800;29;19965;-85
2022/10/12 07:14:01;;;;;;;;;;;;;;;;;;4751272;29;19937;-86
2022/10/12 07:16:27;;;;;;;;;;;;;;;;;;4731268;29;19959;-86
2022/10/12 07:18:53;;;;;;;;;;;;;;;;;;4735530;29;20492;-86
2022/10/12 07:21:19;;;;;;;;;;;;;;;;;;4757202;29;20313;-86
2022/10/12 07:23:45;;;;;;;;;;;;;;;;;;4740626;30;19930;-86
2022/10/12 07:26:11;;;;;;;;;;;;;;;;;;4739317;29;20423;-86
2022/10/12 07:28:37;;;;;;;;;;;;;;;;;;4749388;29;19973;-86
2022/10/12 07:31:03;;;;;;;;;;;;;;;;;;4732592;29;20373;-87
2022/10/12 07:33:29;;;;;;;;;;;;;;;;;;4746621;29;19936;-87
2022/10/12 07:35:55;;;;;;;;;;;;;;;;;;4738273;29;20444;-85
2022/10/12 07:38:21;;;;;;;;;;;;;;;;;;4745686;29;19933;-85
2022/10/12 07:40:47;;;;;;;;;;;;;;;;;;4744994;29;19999;-86
2022/10/12 07:43:13;;;;;;;;;;;;;;;;;;4742355;29;20689;-86
2022/10/12 07:45:40;;;;;;;;;;;;;;;;;;4750113;29;19933;-86
2022/10/12 07:48:06;;;;;;;;;;;;;;;;;;4729735;29;19941;-86
2022/10/12 07:50:32;;;;;;;;;;;;;;;;;;4747706;29;19940;-86
2022/10/12 07:52:57;;;;;;;;;;;;;;;;;;4738495;30;20830;-86
2022/10/12 07:55:23;;;;;;;;;;;;;;;;;;4733462;29;19947;-86
2022/10/12 07:57:52;;;;;;;;;;;;;;;;;;4733216;29;19951;-86
2022/10/12 08:00:20;;;;;;;;;;;;;;;;;;4735118;29;19933;-86
2022/10/12 08:02:46;;;;;;;;;;;;;;;;;;4734891;29;20021;-86
2022/10/12 08:05:12;;;;;;;;;;;;;;;;;;4738453;29;20019;-86
2022/10/12 08:07:38;;;;;;;;;;;;;;;;;;4748697;29;19936;-86
2022/10/12 08:10:04;;;;;;;;;;;;;;;;;;4749555;29;20016;-87
2022/10/12 08:12:30;;;;;;;;;;;;;;;;;;4770659;29;19932;-86
2022/10/12 08:14:56;;;;;;;;;;;;;;;;;;4734013;29;20013;-86
2022/10/12 08:17:23;;;;;;;;;;;;;;;;;;4748511;29;20028;-86
2022/10/12 08:19:52;;;;;;;;;;;;;;;;;;4753330;30;19932;-86
2022/10/12 08:22:18;;;;;;;;;;;;;;;;;;4752761;29;20361;-86
2022/10/12 08:24:44;;;;;;;;;;;;;;;;;;4750695;29;19926;-86
2022/10/12 08:27:10;;;;;;;;;;;;;;;;;;4752419;29;21793;-87
2022/10/12 08:29:36;;;;;;;;;;;;;;;;;;4759193;30;20352;-85
2022/10/12 08:32:02;;;;;;;;;;;;;;;;;;4753501;29;19940;-86
2022/10/12 08:34:31;;;;;;;;;;;;;;;;;;4745986;30;20357;-91
2022/10/12 08:36:58;;;;;;;;;;;;;;;;;;4725104;29;20031;-86
2022/10/12 08:39:24;;;;;;;;;;;;;;;;;;4753211;30;19967;-86
2022/10/12 08:41:50;;;;;;;;;;;;;;;;;;4741403;29;20322;-86
2022/10/12 08:44:16;;;;;;;;;;;;;;;;;;4757529;29;19944;-86
2022/10/12 08:46:42;;;;;;;;;;;;;;;;;;4762128;29;19933;-86
2022/10/12 08:49:08;;;;;;;;;;;;;;;;;;4761933;29;19940;-86
2022/10/12 08:51:34;;;;;;;;;;;;;;;;;;4752555;30;19922;-86
2022/10/12 08:54:00;;;;;;;;;;;;;;;;;;4764246;29;19925;-86
2022/10/12 08:56:26;;;;;;;;;;;;;;;;;;4743892;30;19997;-86
2022/10/12 08:58:52;;;;;;;;;;;;;;;;;;4757501;29;19969;-86
2022/10/12 09:01:18;;;;;;;;;;;;;;;;;;4780192;29;19980;-86
2022/10/12 09:03:44;;;;;;;;;;;;;;;;;;4764861;29;19983;-86
2022/10/12 09:06:10;;;;;;;;;;;;;;;;;;4769539;29;21058;-86
2022/10/12 09:08:36;;;;;;;;;;;;;;;;;;4743582;29;20500;-86
2022/10/12 09:11:02;;;;;;;;;;;;;;;;;;4767896;29;20577;-86
2022/10/12 09:13:28;;;;;;;;;;;;;;;;;;4759752;29;20046;-86
2022/10/12 09:15:54;;;;;;;;;;;;;;;;;;4781508;29;19933;-86
2022/10/12 09:18:20;;;;;;;;;;;;;;;;;;4770177;29;20389;-86
2022/10/12 09:20:46;;;;;;;;;;;;;;;;;;4771785;29;20443;-86
2022/10/12 09:23:12;;;;;;;;;;;;;;;;;;4737214;29;19933;-86
2022/10/12 09:25:38;;;;;;;;;;;;;;;;;;4772190;29;20369;-86
2022/10/12 09:28:04;;;;;;;;;;;;;;;;;;4750985;29;19929;-86
2022/10/12 09:30:30;;;;;;;;;;;;;;;;;;4767958;29;19929;-86
2022/10/12 09:32:56;;;;;;;;;;;;;;;;;;4735645;29;20031;-86
2022/10/12 09:35:22;;;;;;;;;;;;;;;;;;4741848;29;20407;-86
2022/10/12 09:37:48;;;;;;;;;;;;;;;;;;4754482;30;19933;-86
2022/10/12 09:40:13;;;;;;;;;;;;;;;;;;4754781;29;20008;-86
2022/10/12 09:42:39;;;;;;;;;;;;;;;;;;4758637;29;20392;-86
2022/10/12 09:45:05;;;;;;;;;;;;;;;;;;4751460;30;20255;-87
2022/10/12 09:47:32;;;;;;;;;;;;;;;;;;4768732;29;20435;-87
2022/10/12 09:49:58;;;;;;;;;;;;;;;;;;4771655;29;20446;-87
2022/10/12 09:52:24;;;;;;;;;;;;;;;;;;4751523;29;20383;-87
2022/10/12 09:54:53;;;;;;;;;;;;;;;;;;4756701;30;19936;-87
2022/10/12 09:57:19;;;;;;;;;;;;;;;;;;4768159;29;19937;-87
2022/10/12 09:59:45;;;;;;;;;;;;;;;;;;4767701;29;20073;-86
2022/10/12 10:02:10;;;;;;;;;;;;;;;;;;4750508;29;19937;-87
2022/10/12 10:04:36;;;;;;;;;;;;;;;;;;4761650;30;19922;-87
2022/10/12 10:07:02;;;;;;;;;;;;;;;;;;4749026;29;19980;-87
2022/10/12 10:09:28;;;;;;;;;;;;;;;;;;4755537;29;20366;-86
2022/10/12 10:11:54;;;;;;;;;;;;;;;;;;4750906;29;20320;-87
2022/10/12 10:14:20;;;;;;;;;;;;;;;;;;4752043;30;20447;-86
2022/10/12 10:16:46;;;;;;;;;;;;;;;;;;4775082;29;20367;-87
2022/10/12 10:19:13;;;;;;;;;;;;;;;;;;4766329;29;19934;-86
2022/10/12 10:21:39;;;;;;;;;;;;;;;;;;4745418;30;19926;-86
2022/10/12 10:24:05;;;;;;;;;;;;;;;;;;4750524;30;19930;-87
2022/10/12 10:26:31;;;;;;;;;;;;;;;;;;4754241;29;20305;-87
2022/10/12 10:28:57;;;;;;;;;;;;;;;;;;4734372;29;20047;-88
2022/10/12 10:31:26;;;;;;;;;;;;;;;;;;4755439;30;19930;-87
2022/10/12 10:34:10;;;;;;;;;;;;;;;;;;4766839;29;21771;-87
2022/10/12 10:36:55;;;;;;;;;;;;;;;;;;4768896;29;20022;-86
2022/10/12 10:39:40;;;;;;;;;;;;;;;;;;4764438;30;20400;-86
2022/10/12 10:42:27;;;;;;;;;;;;;;;;;;4771785;29;20017;-87
2022/10/12 10:45:11;;;;;;;;;;;;;;;;;;4767877;29;20034;-87
2022/10/12 10:48:00;;;;;;;;;;;;;;;;;;4767707;29;20033;-87
2022/10/12 10:50:26;;;;;;;;;;;;;;;;;;4769737;29;19934;-87
2022/10/12 10:52:52;;;;;;;;;;;;;;;;;;4746336;29;19933;-86
2022/10/12 10:55:18;;;;;;;;;;;;;;;;;;4758019;29;19926;-87
2022/10/12 10:57:44;;;;;;;;;;;;;;;;;;4769613;29;19933;-86
2022/10/12 11:00:10;;;;;;;;;;;;;;;;;;4747847;29;21477;-87
2022/10/12 11:02:36;;;;;;;;;;;;;;;;;;4758133;30;19955;-87
2022/10/12 11:05:02;;;;;;;;;;;;;;;;;;4743063;30;20028;-87
2022/10/12 11:07:28;;;;;;;;;;;;;;;;;;4751970;29;19929;-87
2022/10/12 11:09:54;;;;;;;;;;;;;;;;;;4749692;29;20985;-86
2022/10/12 11:12:20;;;;;;;;;;;;;;;;;;4757575;29;20025;-87
2022/10/12 11:14:46;;;;;;;;;;;;;;;;;;4758020;30;19929;-87
2022/10/12 11:17:12;;;;;;;;;;;;;;;;;;4749991;30;19940;-87
2022/10/12 11:19:38;;;;;;;;;;;;;;;;;;4747073;30;19929;-87
2022/10/12 11:22:04;;;;;;;;;;;;;;;;;;4751098;30;20783;-87
2022/10/12 11:24:29;;;;;;;;;;;;;;;;;;4758030;29;19925;-87
2022/10/12 11:26:55;;;;;;;;;;;;;;;;;;4751159;30;20385;-87
2022/10/12 11:29:21;;;;;;;;;;;;;;;;;;4741317;30;19929;-85
2022/10/12 11:31:47;;;;;;;;;;;;;;;;;;4751076;30;19929;-86
2022/10/12 11:34:13;;;;;;;;;;;;;;;;;;4751561;29;19936;-86
2022/10/12 11:36:39;;;;;;;;;;;;;;;;;;4761347;30;20429;-86
2022/10/12 11:39:05;;;;;;;;;;;;;;;;;;4753027;29;19933;-86
2022/10/12 11:41:32;;;;;;;;;;;;;;;;;;4759165;30;19929;-86
2022/10/12 11:43:58;;;;;;;;;;;;;;;;;;4768391;29;19929;-86
2022/10/12 11:46:24;;;;;;;;;;;;;;;;;;4756683;30;19937;-86
2022/10/12 11:48:50;;;;;;;;;;;;;;;;;;4768096;29;19932;-87
2022/10/12 11:51:16;;;;;;;;;;;;;;;;;;4766277;29;20281;-86
2022/10/12 11:53:42;;;;;;;;;;;;;;;;;;4754400;30;19933;-86
2022/10/12 11:56:08;;;;;;;;;;;;;;;;;;4757814;29;20053;-86
2022/10/12 11:58:34;;;;;;;;;;;;;;;;;;4756400;30;19929;-87
2022/10/12 12:01:00;;;;;;;;;;;;;;;;;;4762032;29;20293;-86
2022/10/12 12:03:26;;;;;;;;;;;;;;;;;;4768817;29;19934;-86
2022/10/12 12:05:52;;;;;;;;;;;;;;;;;;4754582;29;20359;-86
2022/10/12 12:08:18;;;;;;;;;;;;;;;;;;4769259;29;19944;-86
2022/10/12 12:10:44;;;;;;;;;;;;;;;;;;4768360;29;19933;-86
2022/10/12 12:13:13;;;;;;;;;;;;;;;;;;4764961;29;23513;-86
2022/10/12 12:15:39;;;;;;;;;;;;;;;;;;4754915;30;19934;-86
2022/10/12 12:18:05;;;;;;;;;;;;;;;;;;4746584;29;19933;-86
2022/10/12 12:20:31;;;;;;;;;;;;;;;;;;4754951;29;19977;-86
2022/10/12 12:22:57;;;;;;;;;;;;;;;;;;4748472;29;20364;-87
2022/10/12 12:25:23;;;;;;;;;;;;;;;;;;4767144;29;19933;-86
2022/10/12 12:27:52;;;;;;;;;;;;;;;;;;4768464;29;19986;-86
2022/10/12 12:30:18;;;;;;;;;;;;;;;;;;4752990;29;19929;-87
2022/10/12 12:32:44;;;;;;;;;;;;;;;;;;4747441;30;19939;-87
2022/10/12 12:35:10;;;;;;;;;;;;;;;;;;4749678;30;20722;-87
2022/10/12 12:37:36;;;;;;;;;;;;;;;;;;4750983;30;19926;-86
2022/10/12 12:40:02;;;;;;;;;;;;;;;;;;4764387;29;19936;-86
2022/10/12 12:42:33;;;;;;;;;;;;;;;;;;4752391;29;19968;-86
2022/10/12 12:44:59;;;;;;;;;;;;;;;;;;4751697;30;19929;-87
2022/10/12 12:47:24;;;;;;;;;;;;;;;;;;4751578;29;19929;-86
2022/10/12 12:49:51;;;;;;;;;;;;;;;;;;4757587;29;19929;-86
2022/10/12 12:52:17;;;;;;;;;;;;;;;;;;4761836;30;19936;-87
2022/10/12 12:54:42;;;;;;;;;;;;;;;;;;4773668;29;19929;-87
2022/10/12 12:57:08;;;;;;;;;;;;;;;;;;4754794;29;19938;-87
2022/10/12 12:59:34;;;;;;;;;;;;;;;;;;4758181;30;20439;-86
2022/10/12 13:02:00;;;;;;;;;;;;;;;;;;4752421;29;20339;-86
2022/10/12 13:04:26;;;;;;;;;;;;;;;;;;4753577;30;20561;-85
2022/10/12 13:06:55;;;;;;;;;;;;;;;;;;4737389;29;19967;-87
2022/10/12 13:09:21;;;;;;;;;;;;;;;;;;4755972;30;19935;-90
2022/10/12 13:11:47;;;;;;;;;;;;;;;;;;4750594;30;19937;-88
2022/10/12 13:14:13;;;;;;;;;;;;;;;;;;4746220;29;19934;-87
2022/10/12 13:16:43;;;;;;;;;;;;;;;;;;4757120;29;19937;-87
2022/10/12 13:19:09;;;;;;;;;;;;;;;;;;4731742;29;19929;-87
2022/10/12 13:21:38;;;;;;;;;;;;;;;;;;4733290;30;19929;-88
2022/10/12 13:24:06;;;;;;;;;;;;;;;;;;4737985;29;20023;-87
2022/10/12 13:26:32;;;;;;;;;;;;;;;;;;4739823;29;19933;-87
2022/10/12 13:29:01;;;;;;;;;;;;;;;;;;4732800;29;20014;-87
2022/10/12 13:31:27;;;;;;;;;;;;;;;;;;4758374;29;19936;-87
2022/10/12 13:33:53;;;;;;;;;;;;;;;;;;4748846;29;19929;-88
2022/10/12 13:36:20;;;;;;;;;;;;;;;;;;4741039;29;20567;-86
2022/10/12 13:38:46;;;;;;;;;;;;;;;;;;4739071;29;19940;-86
2022/10/12 13:44:30;;;;;;;;;;;;;;;;;;4661523;30;20445;-88
2022/10/12 13:46:57;;;;;;;;;;;;;;;;;;4710008;30;19930;-87
2022/10/12 14:31:51;;;;;;;;;;;;;;;;;;;;;
2022/10/12 15:32:18;;;;;;;;;;;;;;;;;;4889371;24;20431;-86
2022/10/12 15:40:27;;;;;;;;;;;;;;;;;;5363791;24;19933;-89
2022/10/12 15:42:53;;;;;;;;;;;;;;;;;;4730564;29;19933;-88
2022/10/12 15:45:22;;;;;;;;;;;;;;;;;;4723338;29;20428;-89
2022/10/12 15:47:55;;;;;;;;;;;;;;;;;;4739234;29;20031;-89
2022/10/12 15:50:24;;;;;;;;;;;;;;;;;;4738690;29;20457;-89
2022/10/12 15:52:53;;;;;;;;;;;;;;;;;;4737339;29;20780;-88
2022/10/12 15:55:22;;;;;;;;;;;;;;;;;;4725902;29;20164;-89
2022/10/12 15:57:50;;;;;;;;;;;;;;;;;;4727141;29;20500;-88
2022/10/12 16:00:16;;;;;;;;;;;;;;;;;;4731997;29;20378;-88
2022/10/12 16:02:43;;;;;;;;;;;;;;;;;;4732432;29;19933;-88
2022/10/12 16:05:15;;;;;;;;;;;;;;;;;;4723817;29;19933;-88
2022/10/12 16:07:48;;;;;;;;;;;;;;;;;;4729640;29;19933;-89
2022/10/12 16:10:14;;;;;;;;;;;;;;;;;;4719906;29;21633;-89
2022/10/12 16:12:40;;;;;;;;;;;;;;;;;;4733282;29;19984;-89
2022/10/12 16:15:06;;;;;;;;;;;;;;;;;;4721012;29;19933;-89
2022/10/12 16:17:33;;;;;;;;;;;;;;;;;;4725974;29;19977;-89
2022/10/12 16:19:59;;;;;;;;;;;;;;;;;;4722271;29;19933;-88
2022/10/12 16:22:25;;;;;;;;;;;;;;;;;;4736213;29;19929;-88
2022/10/12 16:24:51;;;;;;;;;;;;;;;;;;4737084;29;20001;-88
2022/10/12 16:27:17;;;;;;;;;;;;;;;;;;4742930;29;19933;-89
2022/10/12 16:29:43;;;;;;;;;;;;;;;;;;4739651;29;19929;-89
2022/10/12 16:32:09;;;;;;;;;;;;;;;;;;4736798;29;21254;-89
2022/10/12 16:34:35;;;;;;;;;;;;;;;;;;4756140;29;19922;-88
2022/10/12 16:37:01;;;;;;;;;;;;;;;;;;4734297;29;19965;-91
2022/10/12 16:39:27;;;;;;;;;;;;;;;;;;4736092;29;20009;-88
2022/10/12 16:41:56;;;;;;;;;;;;;;;;;;4723012;29;20433;-88
2022/10/12 16:44:22;;;;;;;;;;;;;;;;;;4744313;29;19942;-89
2022/10/12 16:46:50;;;;;;;;;;;;;;;;;;4738270;29;19949;-95
2022/10/12 16:49:21;;;;;;;;;;;;;;;;;;4744951;29;20654;-88
2022/10/12 16:51:48;;;;;;;;;;;;;;;;;;4747571;29;20468;-88
2022/10/12 16:54:16;;;;;;;;;;;;;;;;;;4747695;29;19936;-88
2022/10/12 16:56:44;;;;;;;;;;;;;;;;;;4741807;30;19934;-88
2022/10/12 16:59:10;;;;;;;;;;;;;;;;;;4754547;29;21633;-88
2022/10/12 17:01:37;;;;;;;;;;;;;;;;;;4735115;29;19933;-89
2022/10/12 17:04:05;;;;;;;;;;;;;;;;;;4731008;29;20305;-88
2022/10/12 17:06:31;;;;;;;;;;;;;;;;;;4754486;29;19978;-88
2022/10/12 17:09:01;;;;;;;;;;;;;;;;;;4747409;29;19929;-87
2022/10/12 17:11:29;;;;;;;;;;;;;;;;;;4744691;29;19926;-88
2022/10/12 17:13:58;;;;;;;;;;;;;;;;;;4742482;29;20370;-89
2022/10/12 17:19:08;;;;;;;;;;;;;;;;;;4743757;29;19945;-88
2022/10/12 17:21:45;;;;;;;;;;;;;;;;;;;;;
2022/10/12 17:24:11;;;;;;;;;;;;;;;;;;4741649;29;20613;-88
2022/10/12 17:26:40;;;;;;;;;;;;;;;;;;4741848;29;19990;-88
2022/10/12 17:29:09;;;;;;;;;;;;;;;;;;4740038;29;20408;-88
2022/10/12 17:31:37;;;;;;;;;;;;;;;;;;4737120;30;20393;-88
2022/10/12 17:34:06;;;;;;;;;;;;;;;;;;4739618;29;20316;-88
2022/10/12 17:36:34;;;;;;;;;;;;;;;;;;4750870;29;20661;-87
2022/10/12 17:39:00;;;;;;;;;;;;;;;;;;4729104;29;19929;-88
2022/10/12 17:41:26;;;;;;;;;;;;;;;;;;4755488;29;19940;-88
2022/10/12 17:43:52;;;;;;;;;;;;;;;;;;4751076;29;19925;-89
2022/10/12 17:46:18;;;;;;;;;;;;;;;;;;4744717;29;19986;-88
2022/10/12 17:48:44;;;;;;;;;;;;;;;;;;4750271;29;19933;-88
2022/10/12 17:51:11;;;;;;;;;;;;;;;;;;4742814;29;22282;-88
2022/10/12 17:53:37;;;;;;;;;;;;;;;;;;4741791;29;20263;-88
2022/10/12 17:56:06;;;;;;;;;;;;;;;;;;4744708;29;19935;-88
2022/10/12 17:58:32;;;;;;;;;;;;;;;;;;4745210;29;20085;-88
2022/10/12 18:01:01;;;;;;;;;;;;;;;;;;4721623;29;19937;-88
2022/10/12 18:03:27;;;;;;;;;;;;;;;;;;4740228;29;19933;-88
2022/10/12 18:05:53;;;;;;;;;;;;;;;;;;4742057;29;19964;-88
2022/10/12 18:08:19;;;;;;;;;;;;;;;;;;4738620;29;19936;-88
2022/10/12 18:10:45;;;;;;;;;;;;;;;;;;4735981;29;20344;-87
2022/10/12 18:13:11;;;;;;;;;;;;;;;;;;4744915;29;20014;-87
2022/10/12 18:15:47;;;;;;;;;;;;;;;;;;4736810;29;20498;-88
2022/10/12 18:18:13;;;;;;;;;;;;;;;;;;4735506;29;19945;-87
2022/10/12 18:20:39;;;;;;;;;;;;;;;;;;4749860;29;19933;-87
2022/10/12 18:23:05;;;;;;;;;;;;;;;;;;4737164;29;20075;-87
2022/10/12 18:25:31;;;;;;;;;;;;;;;;;;4751849;29;19965;-88
2022/10/12 18:27:57;;;;;;;;;;;;;;;;;;4717657;29;20353;-88
2022/10/12 18:30:26;;;;;;;;;;;;;;;;;;4738535;29;19929;-89
2022/10/12 18:32:52;;;;;;;;;;;;;;;;;;4742809;29;19925;-88